sensor_id;sensor_type;location;lat;lon;timestamp;temperature;humidity
4425;DHT22;2225;53.568;13.266;2024-01-30T00:01:07;7.70;91.00
4425;DHT22;2225;53.568;13.266;2024-01-30T00:03:35;7.70;90.90
4425;DHT22;2225;53.568;13.266;2024-01-30T00:06:03;7.70;91.00
4425;DHT22;2225;53.568;13.266;2024-01-30T00:08:30;7.70;91.00
4425;DHT22;2225;53.568;13.266;2024-01-30T00:10:57;7.70;91.00
4425;DHT22;2225;53.568;13.266;2024-01-30T00:13:24;7.60;91.00
4425;DHT22;2225;53.568;13.266;2024-01-30T00:15:51;7.60;91.00
4425;DHT22;2225;53.568;13.266;2024-01-30T00:18:18;7.60;91.00
4425;DHT22;2225;53.568;13.266;2024-01-30T00:20:45;7.60;91.10
4425;DHT22;2225;53.568;13.266;2024-01-30T00:23:13;7.60;91.10
4425;DHT22;2225;53.568;13.266;2024-01-30T00:25:40;7.60;91.10
4425;DHT22;2225;53.568;13.266;2024-01-30T00:28:07;7.60;91.10
4425;DHT22;2225;53.568;13.266;2024-01-30T00:30:34;7.60;91.20
4425;DHT22;2225;53.568;13.266;2024-01-30T00:33:01;7.60;91.20
4425;DHT22;2225;53.568;13.266;2024-01-30T00:35:28;7.60;91.20
4425;DHT22;2225;53.568;13.266;2024-01-30T00:37:55;7.50;91.20
4425;DHT22;2225;53.568;13.266;2024-01-30T00:40:23;7.50;91.20
4425;DHT22;2225;53.568;13.266;2024-01-30T00:42:50;7.50;91.30
4425;DHT22;2225;53.568;13.266;2024-01-30T00:45:17;7.50;91.30
4425;DHT22;2225;53.568;13.266;2024-01-30T00:47:44;7.50;91.30
4425;DHT22;2225;53.568;13.266;2024-01-30T00:50:11;7.50;91.40
4425;DHT22;2225;53.568;13.266;2024-01-30T00:52:38;7.50;91.40
4425;DHT22;2225;53.568;13.266;2024-01-30T00:55:07;7.50;91.50
4425;DHT22;2225;53.568;13.266;2024-01-30T00:57:34;7.50;91.50
4425;DHT22;2225;53.568;13.266;2024-01-30T01:00:01;7.50;91.60
4425;DHT22;2225;53.568;13.266;2024-01-30T01:02:27;7.50;91.60
4425;DHT22;2225;53.568;13.266;2024-01-30T01:04:54;7.40;91.70
4425;DHT22;2225;53.568;13.266;2024-01-30T01:07:21;7.40;91.60
4425;DHT22;2225;53.568;13.266;2024-01-30T01:09:48;7.40;91.70
4425;DHT22;2225;53.568;13.266;2024-01-30T01:12:15;7.40;91.70
4425;DHT22;2225;53.568;13.266;2024-01-30T01:14:42;7.40;91.80
4425;DHT22;2225;53.568;13.266;2024-01-30T01:17:09;7.40;91.90
4425;DHT22;2225;53.568;13.266;2024-01-30T01:19:36;7.30;91.80
4425;DHT22;2225;53.568;13.266;2024-01-30T01:22:03;7.30;92.00
4425;DHT22;2225;53.568;13.266;2024-01-30T01:24:33;7.30;92.00
4425;DHT22;2225;53.568;13.266;2024-01-30T01:27:00;7.30;92.00
4425;DHT22;2225;53.568;13.266;2024-01-30T01:29:28;7.20;92.10
4425;DHT22;2225;53.568;13.266;2024-01-30T01:31:55;7.20;92.00
4425;DHT22;2225;53.568;13.266;2024-01-30T01:34:23;7.20;92.20
4425;DHT22;2225;53.568;13.266;2024-01-30T01:36:55;7.10;92.30
4425;DHT22;2225;53.568;13.266;2024-01-30T01:39:22;7.20;92.30
4425;DHT22;2225;53.568;13.266;2024-01-30T01:41:50;7.10;92.40
4425;DHT22;2225;53.568;13.266;2024-01-30T01:44:18;7.10;92.50
4425;DHT22;2225;53.568;13.266;2024-01-30T01:46:45;7.00;92.60
4425;DHT22;2225;53.568;13.266;2024-01-30T01:49:13;7.00;92.50
4425;DHT22;2225;53.568;13.266;2024-01-30T01:51:42;7.00;92.60
4425;DHT22;2225;53.568;13.266;2024-01-30T01:54:11;7.00;92.70
4425;DHT22;2225;53.568;13.266;2024-01-30T01:56:38;6.90;92.70
4425;DHT22;2225;53.568;13.266;2024-01-30T01:59:07;6.90;92.60
4425;DHT22;2225;53.568;13.266;2024-01-30T02:01:36;6.90;92.60
4425;DHT22;2225;53.568;13.266;2024-01-30T02:04:04;6.80;92.70
4425;DHT22;2225;53.568;13.266;2024-01-30T02:06:32;6.80;92.70
4425;DHT22;2225;53.568;13.266;2024-01-30T02:09:00;6.80;92.70
4425;DHT22;2225;53.568;13.266;2024-01-30T02:11:28;6.80;92.70
4425;DHT22;2225;53.568;13.266;2024-01-30T02:13:55;6.70;92.70
4425;DHT22;2225;53.568;13.266;2024-01-30T02:16:22;6.70;92.60
4425;DHT22;2225;53.568;13.266;2024-01-30T02:18:49;6.70;92.50
4425;DHT22;2225;53.568;13.266;2024-01-30T02:21:16;6.70;92.50
4425;DHT22;2225;53.568;13.266;2024-01-30T02:23:46;6.70;92.60
4425;DHT22;2225;53.568;13.266;2024-01-30T02:26:13;6.60;92.40
4425;DHT22;2225;53.568;13.266;2024-01-30T02:28:40;6.60;92.40
4425;DHT22;2225;53.568;13.266;2024-01-30T02:31:07;6.50;92.40
4425;DHT22;2225;53.568;13.266;2024-01-30T02:33:34;6.50;92.60
4425;DHT22;2225;53.568;13.266;2024-01-30T02:36:01;6.50;92.60
4425;DHT22;2225;53.568;13.266;2024-01-30T02:38:28;6.40;92.50
4425;DHT22;2225;53.568;13.266;2024-01-30T02:40:55;6.40;92.60
4425;DHT22;2225;53.568;13.266;2024-01-30T02:43:25;6.30;92.70
4425;DHT22;2225;53.568;13.266;2024-01-30T02:45:52;6.30;92.70
4425;DHT22;2225;53.568;13.266;2024-01-30T02:48:19;6.30;92.80
4425;DHT22;2225;53.568;13.266;2024-01-30T02:50:46;6.20;92.80
4425;DHT22;2225;53.568;13.266;2024-01-30T02:53:13;6.20;92.90
4425;DHT22;2225;53.568;13.266;2024-01-30T02:55:40;6.20;92.90
4425;DHT22;2225;53.568;13.266;2024-01-30T02:58:07;6.20;92.90
4425;DHT22;2225;53.568;13.266;2024-01-30T03:00:34;6.10;92.90
4425;DHT22;2225;53.568;13.266;2024-01-30T03:03:01;6.10;93.00
4425;DHT22;2225;53.568;13.266;2024-01-30T03:05:28;6.10;93.00
4425;DHT22;2225;53.568;13.266;2024-01-30T03:07:55;6.00;93.00
4425;DHT22;2225;53.568;13.266;2024-01-30T03:10:22;6.00;93.10
4425;DHT22;2225;53.568;13.266;2024-01-30T03:12:49;6.00;93.10
4425;DHT22;2225;53.568;13.266;2024-01-30T03:15:16;6.00;93.10
4425;DHT22;2225;53.568;13.266;2024-01-30T03:17:43;6.00;93.10
4425;DHT22;2225;53.568;13.266;2024-01-30T03:20:11;6.00;93.10
4425;DHT22;2225;53.568;13.266;2024-01-30T03:22:38;6.00;93.20
4425;DHT22;2225;53.568;13.266;2024-01-30T03:25:05;6.00;93.20
4425;DHT22;2225;53.568;13.266;2024-01-30T03:27:32;5.90;93.30
4425;DHT22;2225;53.568;13.266;2024-01-30T03:29:59;5.90;93.30
4425;DHT22;2225;53.568;13.266;2024-01-30T03:32:26;5.90;93.40
4425;DHT22;2225;53.568;13.266;2024-01-30T03:34:53;5.90;93.40
4425;DHT22;2225;53.568;13.266;2024-01-30T03:37:21;5.90;93.40
4425;DHT22;2225;53.568;13.266;2024-01-30T03:39:48;5.90;93.40
4425;DHT22;2225;53.568;13.266;2024-01-30T03:42:15;5.90;93.50
4425;DHT22;2225;53.568;13.266;2024-01-30T03:44:42;5.90;93.50
4425;DHT22;2225;53.568;13.266;2024-01-30T03:47:09;5.90;93.50
4425;DHT22;2225;53.568;13.266;2024-01-30T03:49:36;5.90;93.60
4425;DHT22;2225;53.568;13.266;2024-01-30T03:52:03;5.90;93.70
4425;DHT22;2225;53.568;13.266;2024-01-30T03:54:30;5.90;93.60
4425;DHT22;2225;53.568;13.266;2024-01-30T03:56:57;5.90;93.70
4425;DHT22;2225;53.568;13.266;2024-01-30T03:59:24;5.90;93.60
4425;DHT22;2225;53.568;13.266;2024-01-30T04:01:51;5.90;93.50
4425;DHT22;2225;53.568;13.266;2024-01-30T04:04:19;5.90;93.50
4425;DHT22;2225;53.568;13.266;2024-01-30T04:06:46;5.90;93.70
4425;DHT22;2225;53.568;13.266;2024-01-30T04:09:13;5.90;93.60
4425;DHT22;2225;53.568;13.266;2024-01-30T04:11:41;5.90;93.60
4425;DHT22;2225;53.568;13.266;2024-01-30T04:14:11;5.90;93.60
4425;DHT22;2225;53.568;13.266;2024-01-30T04:16:38;5.90;93.70
4425;DHT22;2225;53.568;13.266;2024-01-30T04:19:05;5.90;93.70
4425;DHT22;2225;53.568;13.266;2024-01-30T04:21:32;5.90;93.70
4425;DHT22;2225;53.568;13.266;2024-01-30T04:23:59;5.80;93.80
4425;DHT22;2225;53.568;13.266;2024-01-30T04:26:26;5.90;93.90
4425;DHT22;2225;53.568;13.266;2024-01-30T04:28:53;5.90;93.80
4425;DHT22;2225;53.568;13.266;2024-01-30T04:31:20;5.80;94.00
4425;DHT22;2225;53.568;13.266;2024-01-30T04:33:47;5.80;94.10
4425;DHT22;2225;53.568;13.266;2024-01-30T04:36:14;5.90;94.10
4425;DHT22;2225;53.568;13.266;2024-01-30T04:38:41;5.90;94.00
4425;DHT22;2225;53.568;13.266;2024-01-30T04:41:08;5.90;94.00
4425;DHT22;2225;53.568;13.266;2024-01-30T04:43:35;5.90;94.10
4425;DHT22;2225;53.568;13.266;2024-01-30T04:46:03;5.90;94.20
4425;DHT22;2225;53.568;13.266;2024-01-30T04:48:30;5.90;94.20
4425;DHT22;2225;53.568;13.266;2024-01-30T04:50:58;6.00;94.20
4425;DHT22;2225;53.568;13.266;2024-01-30T04:53:25;5.90;94.20
4425;DHT22;2225;53.568;13.266;2024-01-30T04:55:52;6.00;94.30
4425;DHT22;2225;53.568;13.266;2024-01-30T04:58:19;6.00;94.30
4425;DHT22;2225;53.568;13.266;2024-01-30T05:00:46;6.00;94.30
4425;DHT22;2225;53.568;13.266;2024-01-30T05:03:19;6.00;94.30
4425;DHT22;2225;53.568;13.266;2024-01-30T05:05:46;6.00;94.30
4425;DHT22;2225;53.568;13.266;2024-01-30T05:08:13;6.00;94.30
4425;DHT22;2225;53.568;13.266;2024-01-30T05:10:40;6.00;94.40
4425;DHT22;2225;53.568;13.266;2024-01-30T05:13:07;6.00;94.50
4425;DHT22;2225;53.568;13.266;2024-01-30T05:15:34;6.00;94.60
4425;DHT22;2225;53.568;13.266;2024-01-30T05:18:01;6.00;94.50
4425;DHT22;2225;53.568;13.266;2024-01-30T05:20:28;6.00;94.50
4425;DHT22;2225;53.568;13.266;2024-01-30T05:22:55;6.00;94.60
4425;DHT22;2225;53.568;13.266;2024-01-30T05:25:22;6.00;94.70
4425;DHT22;2225;53.568;13.266;2024-01-30T05:27:50;6.00;94.70
4425;DHT22;2225;53.568;13.266;2024-01-30T05:30:17;5.90;94.70
4425;DHT22;2225;53.568;13.266;2024-01-30T05:32:44;5.90;94.70
4425;DHT22;2225;53.568;13.266;2024-01-30T05:35:11;5.90;94.60
4425;DHT22;2225;53.568;13.266;2024-01-30T05:37:38;5.90;94.50
4425;DHT22;2225;53.568;13.266;2024-01-30T05:40:05;5.90;94.60
4425;DHT22;2225;53.568;13.266;2024-01-30T05:42:32;5.90;94.60
4425;DHT22;2225;53.568;13.266;2024-01-30T05:44:59;5.80;94.50
4425;DHT22;2225;53.568;13.266;2024-01-30T05:47:26;5.90;94.50
4425;DHT22;2225;53.568;13.266;2024-01-30T05:49:53;5.80;94.40
4425;DHT22;2225;53.568;13.266;2024-01-30T05:52:20;5.80;94.50
4425;DHT22;2225;53.568;13.266;2024-01-30T05:54:47;5.80;94.50
4425;DHT22;2225;53.568;13.266;2024-01-30T05:57:14;5.80;94.50
4425;DHT22;2225;53.568;13.266;2024-01-30T05:59:42;5.80;94.50
4425;DHT22;2225;53.568;13.266;2024-01-30T06:02:10;5.80;94.50
4425;DHT22;2225;53.568;13.266;2024-01-30T06:04:38;5.70;94.80
4425;DHT22;2225;53.568;13.266;2024-01-30T06:07:05;5.70;94.50
4425;DHT22;2225;53.568;13.266;2024-01-30T06:09:33;5.70;94.50
4425;DHT22;2225;53.568;13.266;2024-01-30T06:12:00;5.70;94.60
4425;DHT22;2225;53.568;13.266;2024-01-30T06:14:27;5.70;94.60
4425;DHT22;2225;53.568;13.266;2024-01-30T06:16:54;5.70;94.60
4425;DHT22;2225;53.568;13.266;2024-01-30T06:19:21;5.70;94.70
4425;DHT22;2225;53.568;13.266;2024-01-30T06:21:48;5.70;94.60
4425;DHT22;2225;53.568;13.266;2024-01-30T06:24:15;5.70;94.60
4425;DHT22;2225;53.568;13.266;2024-01-30T06:26:42;5.70;94.60
4425;DHT22;2225;53.568;13.266;2024-01-30T06:29:09;5.70;94.70
4425;DHT22;2225;53.568;13.266;2024-01-30T06:31:41;5.70;94.70
4425;DHT22;2225;53.568;13.266;2024-01-30T06:34:09;5.70;94.80
4425;DHT22;2225;53.568;13.266;2024-01-30T06:36:38;5.70;94.80
4425;DHT22;2225;53.568;13.266;2024-01-30T06:39:05;5.70;94.90
4425;DHT22;2225;53.568;13.266;2024-01-30T06:41:32;5.70;94.80
4425;DHT22;2225;53.568;13.266;2024-01-30T06:43:59;5.70;94.80
4425;DHT22;2225;53.568;13.266;2024-01-30T06:46:26;5.70;94.90
4425;DHT22;2225;53.568;13.266;2024-01-30T06:48:54;5.70;95.00
4425;DHT22;2225;53.568;13.266;2024-01-30T06:51:21;5.70;94.90
4425;DHT22;2225;53.568;13.266;2024-01-30T06:53:48;5.70;94.90
4425;DHT22;2225;53.568;13.266;2024-01-30T06:56:16;5.70;94.90
4425;DHT22;2225;53.568;13.266;2024-01-30T06:58:48;5.70;95.00
4425;DHT22;2225;53.568;13.266;2024-01-30T07:01:16;5.70;95.00
4425;DHT22;2225;53.568;13.266;2024-01-30T07:03:43;5.70;95.00
4425;DHT22;2225;53.568;13.266;2024-01-30T07:06:10;5.70;95.00
4425;DHT22;2225;53.568;13.266;2024-01-30T07:08:37;5.70;95.20
4425;DHT22;2225;53.568;13.266;2024-01-30T07:11:07;5.70;95.10
4425;DHT22;2225;53.568;13.266;2024-01-30T07:13:34;5.70;95.00
4425;DHT22;2225;53.568;13.266;2024-01-30T07:16:02;5.70;95.00
4425;DHT22;2225;53.568;13.266;2024-01-30T07:18:29;5.70;95.10
4425;DHT22;2225;53.568;13.266;2024-01-30T07:20:56;5.70;95.30
4425;DHT22;2225;53.568;13.266;2024-01-30T07:23:23;5.70;95.60
4425;DHT22;2225;53.568;13.266;2024-01-30T07:25:50;5.60;95.60
4425;DHT22;2225;53.568;13.266;2024-01-30T07:28:17;5.60;95.50
4425;DHT22;2225;53.568;13.266;2024-01-30T07:30:44;5.60;95.50
4425;DHT22;2225;53.568;13.266;2024-01-30T07:33:11;5.70;95.60
4425;DHT22;2225;53.568;13.266;2024-01-30T07:35:38;5.70;95.70
4425;DHT22;2225;53.568;13.266;2024-01-30T07:38:06;5.70;95.60
4425;DHT22;2225;53.568;13.266;2024-01-30T07:40:33;5.70;95.70
4425;DHT22;2225;53.568;13.266;2024-01-30T07:43:00;5.70;95.70
4425;DHT22;2225;53.568;13.266;2024-01-30T07:45:27;5.80;95.80
4425;DHT22;2225;53.568;13.266;2024-01-30T07:47:59;5.80;96.00
4425;DHT22;2225;53.568;13.266;2024-01-30T07:50:27;5.80;96.10
4425;DHT22;2225;53.568;13.266;2024-01-30T07:52:56;5.90;96.20
4425;DHT22;2225;53.568;13.266;2024-01-30T07:55:24;5.90;96.60
4425;DHT22;2225;53.568;13.266;2024-01-30T07:57:55;6.00;96.60
4425;DHT22;2225;53.568;13.266;2024-01-30T08:00:22;6.10;96.70
4425;DHT22;2225;53.568;13.266;2024-01-30T08:02:49;6.10;96.70
4425;DHT22;2225;53.568;13.266;2024-01-30T08:05:16;6.20;96.80
4425;DHT22;2225;53.568;13.266;2024-01-30T08:07:43;6.20;96.90
4425;DHT22;2225;53.568;13.266;2024-01-30T08:10:11;6.30;96.80
4425;DHT22;2225;53.568;13.266;2024-01-30T08:12:40;6.40;96.80
4425;DHT22;2225;53.568;13.266;2024-01-30T08:15:07;6.40;96.80
4425;DHT22;2225;53.568;13.266;2024-01-30T08:17:34;6.50;96.80
4425;DHT22;2225;53.568;13.266;2024-01-30T08:20:01;6.60;96.80
4425;DHT22;2225;53.568;13.266;2024-01-30T08:22:31;6.70;96.80
4425;DHT22;2225;53.568;13.266;2024-01-30T08:24:58;6.80;96.80
4425;DHT22;2225;53.568;13.266;2024-01-30T08:27:26;6.90;96.80
4425;DHT22;2225;53.568;13.266;2024-01-30T08:29:53;7.00;96.70
4425;DHT22;2225;53.568;13.266;2024-01-30T08:32:20;7.00;96.70
4425;DHT22;2225;53.568;13.266;2024-01-30T08:34:47;7.10;96.80
4425;DHT22;2225;53.568;13.266;2024-01-30T08:37:14;7.20;96.70
4425;DHT22;2225;53.568;13.266;2024-01-30T08:39:44;7.20;96.70
4425;DHT22;2225;53.568;13.266;2024-01-30T08:42:11;7.30;97.00
4425;DHT22;2225;53.568;13.266;2024-01-30T08:44:38;7.40;96.60
4425;DHT22;2225;53.568;13.266;2024-01-30T08:47:05;7.50;96.50
4425;DHT22;2225;53.568;13.266;2024-01-30T08:49:32;7.50;96.50
4425;DHT22;2225;53.568;13.266;2024-01-30T08:51:59;7.60;96.50
4425;DHT22;2225;53.568;13.266;2024-01-30T08:54:27;7.70;96.40
4425;DHT22;2225;53.568;13.266;2024-01-30T08:56:53;7.70;96.30
4425;DHT22;2225;53.568;13.266;2024-01-30T08:59:22;7.80;96.30
4425;DHT22;2225;53.568;13.266;2024-01-30T09:01:49;7.90;96.20
4425;DHT22;2225;53.568;13.266;2024-01-30T09:04:32;7.90;96.20
4425;DHT22;2225;53.568;13.266;2024-01-30T09:06:59;8.00;96.20
4425;DHT22;2225;53.568;13.266;2024-01-30T09:09:26;8.10;96.10
4425;DHT22;2225;53.568;13.266;2024-01-30T09:11:53;8.20;96.10
4425;DHT22;2225;53.568;13.266;2024-01-30T09:14:20;8.20;96.00
4425;DHT22;2225;53.568;13.266;2024-01-30T09:16:47;8.30;95.90
4425;DHT22;2225;53.568;13.266;2024-01-30T09:19:15;8.30;95.80
4425;DHT22;2225;53.568;13.266;2024-01-30T09:21:42;8.40;95.80
4425;DHT22;2225;53.568;13.266;2024-01-30T09:24:09;8.40;95.60
4425;DHT22;2225;53.568;13.266;2024-01-30T09:26:36;8.50;95.40
4425;DHT22;2225;53.568;13.266;2024-01-30T09:29:03;8.50;95.40
4425;DHT22;2225;53.568;13.266;2024-01-30T09:31:30;8.50;95.40
4425;DHT22;2225;53.568;13.266;2024-01-30T09:33:58;8.50;95.40
4425;DHT22;2225;53.568;13.266;2024-01-30T09:36:25;8.60;95.40
4425;DHT22;2225;53.568;13.266;2024-01-30T09:38:52;8.60;95.70
4425;DHT22;2225;53.568;13.266;2024-01-30T09:41:19;8.70;95.40
4425;DHT22;2225;53.568;13.266;2024-01-30T09:43:48;8.80;95.40
4425;DHT22;2225;53.568;13.266;2024-01-30T09:46:17;8.80;95.40
4425;DHT22;2225;53.568;13.266;2024-01-30T09:48:48;8.90;95.30
4425;DHT22;2225;53.568;13.266;2024-01-30T09:51:15;9.00;95.30
4425;DHT22;2225;53.568;13.266;2024-01-30T09:53:43;9.10;95.20
4425;DHT22;2225;53.568;13.266;2024-01-30T09:56:12;9.20;95.00
4425;DHT22;2225;53.568;13.266;2024-01-30T09:58:39;9.20;94.80
4425;DHT22;2225;53.568;13.266;2024-01-30T10:01:06;9.30;94.70
4425;DHT22;2225;53.568;13.266;2024-01-30T10:03:33;9.30;94.60
4425;DHT22;2225;53.568;13.266;2024-01-30T10:06:01;9.40;94.50
4425;DHT22;2225;53.568;13.266;2024-01-30T10:08:28;9.40;94.70
4425;DHT22;2225;53.568;13.266;2024-01-30T10:10:56;9.50;94.40
4425;DHT22;2225;53.568;13.266;2024-01-30T10:13:25;9.50;94.70
4425;DHT22;2225;53.568;13.266;2024-01-30T10:15:53;9.60;94.20
4425;DHT22;2225;53.568;13.266;2024-01-30T10:18:24;9.60;94.20
4425;DHT22;2225;53.568;13.266;2024-01-30T10:20:51;9.70;94.00
4425;DHT22;2225;53.568;13.266;2024-01-30T10:23:18;9.70;93.70
4425;DHT22;2225;53.568;13.266;2024-01-30T10:25:46;9.80;93.70
4425;DHT22;2225;53.568;13.266;2024-01-30T10:28:14;9.80;93.60
4425;DHT22;2225;53.568;13.266;2024-01-30T10:30:41;9.80;93.70
4425;DHT22;2225;53.568;13.266;2024-01-30T10:33:08;9.80;93.60
4425;DHT22;2225;53.568;13.266;2024-01-30T10:35:35;9.90;93.70
4425;DHT22;2225;53.568;13.266;2024-01-30T10:38:03;9.90;93.70
4425;DHT22;2225;53.568;13.266;2024-01-30T10:40:33;10.00;93.70
4425;DHT22;2225;53.568;13.266;2024-01-30T10:43:02;10.00;93.70
4425;DHT22;2225;53.568;13.266;2024-01-30T10:45:31;10.10;93.70
4425;DHT22;2225;53.568;13.266;2024-01-30T10:47:59;10.10;93.50
4425;DHT22;2225;53.568;13.266;2024-01-30T10:50:29;10.20;93.60
4425;DHT22;2225;53.568;13.266;2024-01-30T10:52:58;10.20;93.60
4425;DHT22;2225;53.568;13.266;2024-01-30T10:55:27;10.30;93.60
4425;DHT22;2225;53.568;13.266;2024-01-30T10:57:55;10.40;93.60
4425;DHT22;2225;53.568;13.266;2024-01-30T11:00:22;10.50;93.60
4425;DHT22;2225;53.568;13.266;2024-01-30T11:02:51;10.50;93.50
4425;DHT22;2225;53.568;13.266;2024-01-30T11:05:25;10.60;92.90
4425;DHT22;2225;53.568;13.266;2024-01-30T11:08:10;10.60;92.50
4425;DHT22;2225;53.568;13.266;2024-01-30T11:10:47;10.70;92.50
4425;DHT22;2225;53.568;13.266;2024-01-30T11:13:14;10.70;92.50
4425;DHT22;2225;53.568;13.266;2024-01-30T11:15:42;10.60;92.60
4425;DHT22;2225;53.568;13.266;2024-01-30T11:18:09;10.70;92.40
4425;DHT22;2225;53.568;13.266;2024-01-30T11:20:36;10.70;92.50
4425;DHT22;2225;53.568;13.266;2024-01-30T11:23:03;10.70;92.60
4425;DHT22;2225;53.568;13.266;2024-01-30T11:25:33;10.70;92.60
4425;DHT22;2225;53.568;13.266;2024-01-30T11:28:01;10.70;92.60
4425;DHT22;2225;53.568;13.266;2024-01-30T11:30:30;10.70;92.60
4425;DHT22;2225;53.568;13.266;2024-01-30T11:33:03;10.80;92.70
4425;DHT22;2225;53.568;13.266;2024-01-30T11:35:33;10.80;92.60
4425;DHT22;2225;53.568;13.266;2024-01-30T11:38:13;10.90;92.70
4425;DHT22;2225;53.568;13.266;2024-01-30T11:40:40;10.90;92.50
4425;DHT22;2225;53.568;13.266;2024-01-30T11:43:08;11.00;92.70
4425;DHT22;2225;53.568;13.266;2024-01-30T11:45:36;11.00;92.70
4425;DHT22;2225;53.568;13.266;2024-01-30T11:48:04;11.10;92.60
4425;DHT22;2225;53.568;13.266;2024-01-30T11:50:33;11.10;92.70
4425;DHT22;2225;53.568;13.266;2024-01-30T11:53:01;11.10;92.70
4425;DHT22;2225;53.568;13.266;2024-01-30T11:55:31;11.20;92.70
4425;DHT22;2225;53.568;13.266;2024-01-30T11:58:01;11.30;92.60
4425;DHT22;2225;53.568;13.266;2024-01-30T12:00:29;11.30;92.60
4425;DHT22;2225;53.568;13.266;2024-01-30T12:03:01;11.40;92.40
4425;DHT22;2225;53.568;13.266;2024-01-30T12:05:29;11.50;92.40
4425;DHT22;2225;53.568;13.266;2024-01-30T12:07:57;11.50;92.40
4425;DHT22;2225;53.568;13.266;2024-01-30T12:10:28;11.60;92.40
4425;DHT22;2225;53.568;13.266;2024-01-30T12:12:56;11.60;92.20
4425;DHT22;2225;53.568;13.266;2024-01-30T12:15:24;11.70;92.30
4425;DHT22;2225;53.568;13.266;2024-01-30T12:17:51;11.70;92.20
4425;DHT22;2225;53.568;13.266;2024-01-30T12:20:19;11.70;92.20
4425;DHT22;2225;53.568;13.266;2024-01-30T12:22:49;11.80;92.20
4425;DHT22;2225;53.568;13.266;2024-01-30T12:25:18;11.90;91.90
4425;DHT22;2225;53.568;13.266;2024-01-30T12:27:49;11.90;91.80
4425;DHT22;2225;53.568;13.266;2024-01-30T12:30:19;11.90;91.80
4425;DHT22;2225;53.568;13.266;2024-01-30T12:32:49;11.90;91.60
4425;DHT22;2225;53.568;13.266;2024-01-30T12:35:19;12.00;91.80
4425;DHT22;2225;53.568;13.266;2024-01-30T12:37:47;12.00;91.70
4425;DHT22;2225;53.568;13.266;2024-01-30T12:40:15;12.10;91.90
4425;DHT22;2225;53.568;13.266;2024-01-30T12:42:43;12.10;91.90
4425;DHT22;2225;53.568;13.266;2024-01-30T12:45:16;12.20;92.00
4425;DHT22;2225;53.568;13.266;2024-01-30T12:47:46;12.30;91.90
4425;DHT22;2225;53.568;13.266;2024-01-30T12:50:14;12.30;91.70
4425;DHT22;2225;53.568;13.266;2024-01-30T12:52:43;12.40;91.50
4425;DHT22;2225;53.568;13.266;2024-01-30T12:55:14;12.40;91.40
4425;DHT22;2225;53.568;13.266;2024-01-30T12:57:41;12.40;91.50
4425;DHT22;2225;53.568;13.266;2024-01-30T13:00:09;12.50;91.50
4425;DHT22;2225;53.568;13.266;2024-01-30T13:02:36;12.50;91.50
4425;DHT22;2225;53.568;13.266;2024-01-30T13:05:04;12.50;91.50
4425;DHT22;2225;53.568;13.266;2024-01-30T13:07:31;12.60;91.50
4425;DHT22;2225;53.568;13.266;2024-01-30T13:09:58;12.60;91.40
4425;DHT22;2225;53.568;13.266;2024-01-30T13:12:30;12.60;91.40
4425;DHT22;2225;53.568;13.266;2024-01-30T13:14:59;12.70;91.50
4425;DHT22;2225;53.568;13.266;2024-01-30T13:17:31;12.70;91.40
4425;DHT22;2225;53.568;13.266;2024-01-30T13:19:58;12.80;91.40
4425;DHT22;2225;53.568;13.266;2024-01-30T13:22:36;12.80;91.30
4425;DHT22;2225;53.568;13.266;2024-01-30T13:25:05;12.80;91.40
4425;DHT22;2225;53.568;13.266;2024-01-30T13:27:33;12.80;91.10
4425;DHT22;2225;53.568;13.266;2024-01-30T13:30:00;12.80;91.10
4425;DHT22;2225;53.568;13.266;2024-01-30T13:32:27;12.90;91.20
4425;DHT22;2225;53.568;13.266;2024-01-30T13:34:54;12.90;91.10
4425;DHT22;2225;53.568;13.266;2024-01-30T13:37:22;12.90;90.90
4425;DHT22;2225;53.568;13.266;2024-01-30T13:39:50;12.80;90.90
4425;DHT22;2225;53.568;13.266;2024-01-30T13:42:17;12.80;90.90
4425;DHT22;2225;53.568;13.266;2024-01-30T13:44:44;12.80;90.90
4425;DHT22;2225;53.568;13.266;2024-01-30T13:47:11;12.80;91.00
4425;DHT22;2225;53.568;13.266;2024-01-30T13:49:38;12.80;91.00
4425;DHT22;2225;53.568;13.266;2024-01-30T13:52:05;12.70;91.00
4425;DHT22;2225;53.568;13.266;2024-01-30T13:54:32;12.80;90.90
4425;DHT22;2225;53.568;13.266;2024-01-30T13:56:59;12.70;90.90
4425;DHT22;2225;53.568;13.266;2024-01-30T13:59:26;12.70;91.00
4425;DHT22;2225;53.568;13.266;2024-01-30T14:01:53;12.70;91.00
4425;DHT22;2225;53.568;13.266;2024-01-30T14:04:20;12.70;91.00
4425;DHT22;2225;53.568;13.266;2024-01-30T14:06:48;12.70;91.00
4425;DHT22;2225;53.568;13.266;2024-01-30T14:09:26;12.70;91.10
4425;DHT22;2225;53.568;13.266;2024-01-30T14:11:53;12.70;91.00
4425;DHT22;2225;53.568;13.266;2024-01-30T14:14:20;12.70;91.00
4425;DHT22;2225;53.568;13.266;2024-01-30T14:16:47;12.70;91.00
4425;DHT22;2225;53.568;13.266;2024-01-30T14:19:14;12.70;91.00
4425;DHT22;2225;53.568;13.266;2024-01-30T14:21:41;12.70;91.00
4425;DHT22;2225;53.568;13.266;2024-01-30T14:24:10;12.70;91.00
4425;DHT22;2225;53.568;13.266;2024-01-30T14:26:37;12.60;90.80
4425;DHT22;2225;53.568;13.266;2024-01-30T14:29:04;12.60;90.90
4425;DHT22;2225;53.568;13.266;2024-01-30T14:31:31;12.60;90.90
4425;DHT22;2225;53.568;13.266;2024-01-30T14:33:58;12.60;91.00
4425;DHT22;2225;53.568;13.266;2024-01-30T14:36:26;12.50;90.90
4425;DHT22;2225;53.568;13.266;2024-01-30T14:38:55;12.50;90.90
4425;DHT22;2225;53.568;13.266;2024-01-30T14:41:22;12.50;90.90
4425;DHT22;2225;53.568;13.266;2024-01-30T14:43:49;12.50;90.90
4425;DHT22;2225;53.568;13.266;2024-01-30T14:46:16;12.40;90.90
4425;DHT22;2225;53.568;13.266;2024-01-30T14:48:43;12.40;90.90
4425;DHT22;2225;53.568;13.266;2024-01-30T14:51:10;12.40;90.90
4425;DHT22;2225;53.568;13.266;2024-01-30T14:53:37;12.30;91.00
4425;DHT22;2225;53.568;13.266;2024-01-30T14:56:05;12.30;91.00
4425;DHT22;2225;53.568;13.266;2024-01-30T14:58:32;12.30;91.10
4425;DHT22;2225;53.568;13.266;2024-01-30T15:00:59;12.30;91.10
4425;DHT22;2225;53.568;13.266;2024-01-30T15:03:27;12.20;91.10
4425;DHT22;2225;53.568;13.266;2024-01-30T15:05:57;12.20;91.10
4425;DHT22;2225;53.568;13.266;2024-01-30T15:08:24;12.20;91.10
4425;DHT22;2225;53.568;13.266;2024-01-30T15:10:52;12.20;91.20
4425;DHT22;2225;53.568;13.266;2024-01-30T15:13:19;12.20;91.20
4425;DHT22;2225;53.568;13.266;2024-01-30T15:15:46;12.20;91.20
4425;DHT22;2225;53.568;13.266;2024-01-30T15:18:13;12.10;91.20
4425;DHT22;2225;53.568;13.266;2024-01-30T15:20:40;12.10;91.20
4425;DHT22;2225;53.568;13.266;2024-01-30T15:23:08;12.10;91.20
4425;DHT22;2225;53.568;13.266;2024-01-30T15:25:34;12.10;91.20
4425;DHT22;2225;53.568;13.266;2024-01-30T15:28:02;12.00;91.20
4425;DHT22;2225;53.568;13.266;2024-01-30T15:30:29;12.00;91.20
4425;DHT22;2225;53.568;13.266;2024-01-30T15:32:56;12.00;91.30
4425;DHT22;2225;53.568;13.266;2024-01-30T15:35:23;11.90;91.20
4425;DHT22;2225;53.568;13.266;2024-01-30T15:37:50;11.90;91.30
4425;DHT22;2225;53.568;13.266;2024-01-30T15:40:17;11.90;91.40
4425;DHT22;2225;53.568;13.266;2024-01-30T15:42:45;11.80;91.40
4425;DHT22;2225;53.568;13.266;2024-01-30T15:45:12;11.80;91.40
4425;DHT22;2225;53.568;13.266;2024-01-30T15:47:39;11.70;91.40
4425;DHT22;2225;53.568;13.266;2024-01-30T15:50:06;11.70;91.50
4425;DHT22;2225;53.568;13.266;2024-01-30T15:52:33;11.70;91.50
4425;DHT22;2225;53.568;13.266;2024-01-30T15:55:00;11.60;91.60
4425;DHT22;2225;53.568;13.266;2024-01-30T15:57:27;11.60;91.60
4425;DHT22;2225;53.568;13.266;2024-01-30T15:59:56;11.60;91.60